BHE1016 ZBAD-ZSNJ
Flight info
| Callsign | BHE1016 |
|---|---|
| Flight time | 1h 15m |
| Altitude | 33100 |
| Route | ELKU4K ELKUR W40 YQG W142 DALIM A593 DPX A470 OF OF54F |
| Aircraft | B772/H-SDE2E3FGHIJ5LORVWXY/LB1D1 |
Departure
| Time | 2026-05-04 08:10 |
|---|---|
| Airport | Beijing Daxing International Airport (ZBAD) |
Arrival
| Time | 2026-05-04 09:26 |
|---|---|
| Airport | Nanjing Lukou International Airport (ZSNJ) |
| Time | Latitude | Longitude | Altitude | Speed | Heading |
|---|---|---|---|---|---|
| 2026-05-04 07:26 | 39.49865 | 116.40530 | 96 ft | 0 kts | 173° |
| 2026-05-04 07:52 | 39.49872 | 116.40528 | 96 ft | 2 kts | 173° |
| 2026-05-04 07:52 | 39.49887 | 116.40526 | 96 ft | 2 kts | 173° |
| 2026-05-04 07:52 | 39.49902 | 116.40524 | 96 ft | 2 kts | 173° |
| 2026-05-04 07:53 | 39.49916 | 116.40521 | 96 ft | 2 kts | 173° |
| 2026-05-04 07:54 | 39.49955 | 116.40468 | 96 ft | 0 kts | 83° |
| 2026-05-04 08:02 | 39.49965 | 116.40589 | 96 ft | 5 kts | 84° |
| 2026-05-04 08:02 | 39.49968 | 116.40616 | 96 ft | 3 kts | 71° |
| 2026-05-04 08:02 | 39.49994 | 116.40629 | 96 ft | 6 kts | 358° |
| 2026-05-04 08:03 | 39.50058 | 116.40622 | 96 ft | 11 kts | 353° |
| 2026-05-04 08:03 | 39.50137 | 116.40612 | 96 ft | 9 kts | 14° |
| 2026-05-04 08:03 | 39.50151 | 116.40675 | 96 ft | 9 kts | 81° |
| 2026-05-04 08:03 | 39.50163 | 116.40784 | 96 ft | 14 kts | 82° |
| 2026-05-04 08:04 | 39.50176 | 116.40929 | 96 ft | 17 kts | 83° |
| 2026-05-04 08:04 | 39.50190 | 116.41077 | 96 ft | 16 kts | 83° |
| 2026-05-04 08:04 | 39.50205 | 116.41239 | 96 ft | 19 kts | 82° |
| 2026-05-04 08:04 | 39.50221 | 116.41402 | 96 ft | 17 kts | 82° |
| 2026-05-04 08:05 | 39.50229 | 116.41476 | 96 ft | 1 kts | 83° |
| 2026-05-04 08:05 | 39.50232 | 116.41512 | 96 ft | 6 kts | 83° |
| 2026-05-04 08:05 | 39.50240 | 116.41598 | 96 ft | 11 kts | 83° |
| 2026-05-04 08:05 | 39.50251 | 116.41721 | 96 ft | 15 kts | 83° |
| 2026-05-04 08:06 | 39.50265 | 116.41871 | 96 ft | 14 kts | 83° |
| 2026-05-04 08:06 | 39.50279 | 116.42019 | 96 ft | 18 kts | 83° |
| 2026-05-04 08:06 | 39.50291 | 116.42152 | 96 ft | 16 kts | 83° |
| 2026-05-04 08:06 | 39.50290 | 116.42220 | 96 ft | 0 kts | 122° |
| 2026-05-04 08:08 | 39.50132 | 116.42346 | 96 ft | 8 kts | 83° |
| 2026-05-04 08:08 | 39.50138 | 116.42416 | 96 ft | 4 kts | 83° |
| 2026-05-04 08:10 | 39.46614 | 116.43257 | 2174 ft | 217 kts | 172° |
| 2026-05-04 08:11 | 39.45034 | 116.43768 | 3147 ft | 252 kts | 160° |
| 2026-05-04 08:11 | 39.42709 | 116.47098 | 2792 ft | 263 kts | 111° |
| 2026-05-04 08:11 | 39.41970 | 116.49180 | 2813 ft | 252 kts | 132° |
| 2026-05-04 08:12 | 39.40588 | 116.50493 | 3320 ft | 246 kts | 161° |
| 2026-05-04 08:12 | 39.38941 | 116.50799 | 3850 ft | 239 kts | 180° |
| 2026-05-04 08:12 | 39.37279 | 116.50998 | 4398 ft | 238 kts | 173° |
| 2026-05-04 08:12 | 39.35635 | 116.51383 | 4866 ft | 244 kts | 171° |
| 2026-05-04 08:13 | 39.33959 | 116.51798 | 4976 ft | 246 kts | 171° |
| 2026-05-04 08:13 | 39.32272 | 116.52218 | 4987 ft | 245 kts | 171° |
| 2026-05-04 08:13 | 39.30605 | 116.52633 | 4988 ft | 244 kts | 171° |
| 2026-05-04 08:13 | 39.28948 | 116.53045 | 4989 ft | 244 kts | 171° |
| 2026-05-04 08:14 | 39.27267 | 116.53460 | 4991 ft | 244 kts | 171° |
| 2026-05-04 08:14 | 39.25609 | 116.53869 | 4990 ft | 243 kts | 171° |
| 2026-05-04 08:14 | 39.23941 | 116.54277 | 4991 ft | 244 kts | 171° |
| 2026-05-04 08:16 | 39.10999 | 116.56960 | 10157 ft | 302 kts | 173° |
| 2026-05-04 08:16 | 39.08948 | 116.57378 | 11212 ft | 306 kts | 172° |
| 2026-05-04 08:16 | 39.06824 | 116.57810 | 12236 ft | 312 kts | 172° |
| 2026-05-04 08:17 | 39.04682 | 116.58246 | 13246 ft | 317 kts | 172° |
| 2026-05-04 08:17 | 39.02503 | 116.58689 | 14307 ft | 320 kts | 172° |
| 2026-05-04 08:17 | 39.00331 | 116.59131 | 15375 ft | 321 kts | 172° |
| 2026-05-04 08:17 | 38.98129 | 116.59579 | 16397 ft | 324 kts | 171° |
| 2026-05-04 08:19 | 38.82192 | 116.62816 | 18543 ft | 333 kts | 171° |
| 2026-05-04 08:19 | 38.79898 | 116.63281 | 18543 ft | 333 kts | 171° |
| 2026-05-04 08:20 | 38.77602 | 116.63746 | 18544 ft | 333 kts | 171° |
| 2026-05-04 08:20 | 38.75323 | 116.64207 | 18550 ft | 334 kts | 171° |
| 2026-05-04 08:20 | 38.72982 | 116.64681 | 18603 ft | 349 kts | 171° |
| 2026-05-04 08:20 | 38.70566 | 116.65169 | 19589 ft | 350 kts | 172° |
| 2026-05-04 08:21 | 38.68211 | 116.65645 | 20824 ft | 343 kts | 172° |
| 2026-05-04 08:21 | 38.65876 | 116.66116 | 21698 ft | 347 kts | 172° |
| 2026-05-04 08:21 | 38.63467 | 116.66364 | 22423 ft | 354 kts | 181° |
| 2026-05-04 08:21 | 38.60982 | 116.66177 | 23223 ft | 358 kts | 186° |
| 2026-05-04 08:22 | 38.58507 | 116.65887 | 24059 ft | 361 kts | 187° |
| 2026-05-04 08:22 | 38.56003 | 116.65591 | 24799 ft | 366 kts | 187° |
| 2026-05-04 08:24 | 38.37465 | 116.63454 | 29329 ft | 398 kts | 187° |
| 2026-05-04 08:24 | 38.34677 | 116.63180 | 29918 ft | 403 kts | 183° |
| 2026-05-04 08:24 | 38.31847 | 116.63435 | 30443 ft | 410 kts | 172° |
| 2026-05-04 08:24 | 38.29092 | 116.64323 | 30969 ft | 416 kts | 164° |
| 2026-05-04 08:25 | 38.26326 | 116.65420 | 31514 ft | 420 kts | 163° |
| 2026-05-04 08:25 | 38.23503 | 116.66549 | 32050 ft | 424 kts | 163° |
| 2026-05-04 08:25 | 38.20696 | 116.67672 | 32584 ft | 427 kts | 164° |
| 2026-05-04 08:25 | 38.17827 | 116.68819 | 32940 ft | 434 kts | 164° |
| 2026-05-04 08:27 | 37.94908 | 116.77947 | 32991 ft | 431 kts | 164° |
| 2026-05-04 08:28 | 37.89166 | 116.80225 | 32986 ft | 431 kts | 164° |
| 2026-05-04 08:28 | 37.83464 | 116.82484 | 32984 ft | 431 kts | 164° |
| 2026-05-04 08:29 | 37.77732 | 116.84750 | 32989 ft | 431 kts | 164° |
| 2026-05-04 08:31 | 37.54754 | 116.93798 | 32992 ft | 432 kts | 165° |
| 2026-05-04 08:33 | 37.34149 | 117.01862 | 32999 ft | 443 kts | 165° |
| 2026-05-04 08:33 | 37.31211 | 117.03007 | 33000 ft | 443 kts | 165° |
| 2026-05-04 08:35 | 37.08272 | 117.11914 | 33011 ft | 537 kts | 165° |
| 2026-05-04 08:35 | 37.04698 | 117.13299 | 33018 ft | 539 kts | 165° |
| 2026-05-04 08:35 | 36.97559 | 117.16062 | 33021 ft | 537 kts | 165° |
| 2026-05-04 08:37 | 36.75793 | 117.21538 | 33024 ft | 529 kts | 183° |
| 2026-05-04 08:37 | 36.72111 | 117.21517 | 33032 ft | 528 kts | 183° |
| 2026-05-04 08:38 | 36.64721 | 117.21467 | 33054 ft | 528 kts | 183° |
| 2026-05-04 08:38 | 36.57340 | 117.21415 | 33074 ft | 528 kts | 183° |
| 2026-05-04 08:40 | 36.31847 | 117.24988 | 33081 ft | 534 kts | 165° |
| 2026-05-04 08:40 | 36.28301 | 117.26309 | 33079 ft | 534 kts | 165° |
| 2026-05-04 08:41 | 36.21178 | 117.28959 | 33072 ft | 535 kts | 166° |
| 2026-05-04 08:41 | 36.14056 | 117.31602 | 33076 ft | 533 kts | 165° |
| 2026-05-04 08:42 | 36.06960 | 117.34227 | 33081 ft | 535 kts | 166° |
| 2026-05-04 08:42 | 35.99854 | 117.36852 | 33086 ft | 532 kts | 166° |
| 2026-05-04 08:43 | 35.92763 | 117.39503 | 33084 ft | 532 kts | 165° |
| 2026-05-04 08:43 | 35.85683 | 117.42156 | 33080 ft | 531 kts | 165° |
| 2026-05-04 08:44 | 35.78626 | 117.44793 | 33086 ft | 531 kts | 165° |
| 2026-05-04 08:46 | 35.50294 | 117.55327 | 33097 ft | 530 kts | 165° |
| 2026-05-04 08:46 | 35.43223 | 117.57943 | 33099 ft | 530 kts | 165° |
| 2026-05-04 08:47 | 35.36107 | 117.60571 | 33103 ft | 529 kts | 165° |
| 2026-05-04 08:47 | 35.29043 | 117.63175 | 33109 ft | 530 kts | 165° |
| 2026-05-04 08:48 | 35.22000 | 117.65767 | 33106 ft | 527 kts | 166° |
| 2026-05-04 08:48 | 35.14957 | 117.68354 | 33108 ft | 528 kts | 166° |
| 2026-05-04 08:49 | 35.07918 | 117.70934 | 33104 ft | 529 kts | 166° |
| 2026-05-04 08:50 | 34.83284 | 117.79947 | 33082 ft | 527 kts | 166° |
| 2026-05-04 08:51 | 34.76261 | 117.82499 | 33077 ft | 528 kts | 166° |
| 2026-05-04 08:51 | 34.69215 | 117.85032 | 33086 ft | 528 kts | 166° |
| 2026-05-04 08:52 | 34.62113 | 117.87582 | 33074 ft | 530 kts | 166° |
| 2026-05-04 08:52 | 34.55075 | 117.90106 | 33071 ft | 530 kts | 166° |
| 2026-05-04 08:54 | 34.26777 | 118.00211 | 33071 ft | 529 kts | 166° |
| 2026-05-04 08:55 | 34.19747 | 118.02771 | 33076 ft | 532 kts | 166° |
| 2026-05-04 08:55 | 34.12657 | 118.05356 | 33067 ft | 531 kts | 166° |
| 2026-05-04 09:01 | 33.38623 | 118.32250 | 33071 ft | 527 kts | 167° |
| 2026-05-04 09:01 | 33.35117 | 118.33518 | 33079 ft | 512 kts | 167° |
| 2026-05-04 09:01 | 33.31798 | 118.34721 | 32837 ft | 497 kts | 168° |
| 2026-05-04 09:01 | 33.28506 | 118.35907 | 31984 ft | 498 kts | 168° |
| 2026-05-04 09:02 | 33.25169 | 118.37104 | 30799 ft | 505 kts | 167° |
| 2026-05-04 09:02 | 33.21823 | 118.38306 | 29417 ft | 498 kts | 166° |
| 2026-05-04 09:02 | 33.18568 | 118.39481 | 28146 ft | 487 kts | 166° |
| 2026-05-04 09:02 | 33.15371 | 118.40634 | 26883 ft | 477 kts | 166° |
| 2026-05-04 09:03 | 33.12227 | 118.41767 | 25726 ft | 465 kts | 166° |
| 2026-05-04 09:03 | 33.09217 | 118.42852 | 25105 ft | 443 kts | 166° |
| 2026-05-04 09:03 | 33.06312 | 118.43900 | 24702 ft | 420 kts | 166° |
| 2026-05-04 09:03 | 33.03551 | 118.44891 | 24302 ft | 412 kts | 166° |
| 2026-05-04 09:04 | 33.00849 | 118.45860 | 23904 ft | 409 kts | 167° |
| 2026-05-04 09:04 | 32.98151 | 118.46828 | 23375 ft | 397 kts | 167° |
| 2026-05-04 09:04 | 32.95493 | 118.47779 | 22708 ft | 399 kts | 167° |
| 2026-05-04 09:04 | 32.92864 | 118.48718 | 22093 ft | 399 kts | 167° |
| 2026-05-04 09:05 | 32.90222 | 118.49664 | 21642 ft | 394 kts | 167° |
| 2026-05-04 09:05 | 32.87608 | 118.50600 | 21189 ft | 389 kts | 167° |
| 2026-05-04 09:05 | 32.85032 | 118.51521 | 20720 ft | 386 kts | 167° |
| 2026-05-04 09:05 | 32.82466 | 118.52438 | 20194 ft | 384 kts | 167° |
| 2026-05-04 09:06 | 32.79921 | 118.53347 | 19690 ft | 381 kts | 167° |
| 2026-05-04 09:07 | 32.62570 | 118.59462 | 16309 ft | 363 kts | 167° |
| 2026-05-04 09:08 | 32.60154 | 118.60278 | 15842 ft | 360 kts | 167° |
| 2026-05-04 09:08 | 32.57727 | 118.61097 | 15351 ft | 359 kts | 166° |
| 2026-05-04 09:08 | 32.55332 | 118.61907 | 14870 ft | 357 kts | 166° |
| 2026-05-04 09:08 | 32.52970 | 118.62706 | 14413 ft | 355 kts | 166° |
| 2026-05-04 09:09 | 32.50581 | 118.63515 | 13965 ft | 352 kts | 166° |
| 2026-05-04 09:09 | 32.48257 | 118.64301 | 13510 ft | 350 kts | 166° |
| 2026-05-04 09:09 | 32.45906 | 118.65095 | 13031 ft | 349 kts | 166° |
| 2026-05-04 09:09 | 32.43595 | 118.65876 | 12573 ft | 347 kts | 166° |
| 2026-05-04 09:10 | 32.41266 | 118.66663 | 12131 ft | 344 kts | 166° |
| 2026-05-04 09:10 | 32.38998 | 118.67428 | 11683 ft | 342 kts | 166° |
| 2026-05-04 09:10 | 32.36704 | 118.68201 | 11224 ft | 340 kts | 166° |
| 2026-05-04 09:10 | 32.34424 | 118.68971 | 10782 ft | 338 kts | 166° |
| 2026-05-04 09:11 | 32.32164 | 118.69733 | 10368 ft | 335 kts | 166° |
| 2026-05-04 09:11 | 32.29917 | 118.70489 | 9957 ft | 332 kts | 166° |
| 2026-05-04 09:11 | 32.27733 | 118.71225 | 9835 ft | 320 kts | 166° |
| 2026-05-04 09:11 | 32.25644 | 118.71929 | 9826 ft | 305 kts | 166° |
| 2026-05-04 09:12 | 32.23646 | 118.72601 | 9828 ft | 297 kts | 166° |
| 2026-05-04 09:12 | 32.21645 | 118.73274 | 9833 ft | 297 kts | 166° |
| 2026-05-04 09:14 | 32.08960 | 118.77533 | 8908 ft | 257 kts | 166° |
| 2026-05-04 09:14 | 32.07235 | 118.78112 | 8709 ft | 255 kts | 166° |
| 2026-05-04 09:14 | 32.05528 | 118.78684 | 8513 ft | 253 kts | 166° |
| 2026-05-04 09:14 | 32.03836 | 118.79250 | 8314 ft | 251 kts | 166° |
| 2026-05-04 09:15 | 32.02181 | 118.79802 | 8108 ft | 250 kts | 166° |
| 2026-05-04 09:15 | 32.00470 | 118.80371 | 7742 ft | 255 kts | 166° |
| 2026-05-04 09:15 | 31.98763 | 118.80939 | 7385 ft | 260 kts | 166° |
| 2026-05-04 09:15 | 31.97001 | 118.81511 | 7013 ft | 264 kts | 167° |
| 2026-05-04 09:17 | 31.87260 | 118.91119 | 4021 ft | 280 kts | 59° |
| 2026-05-04 09:18 | 31.88342 | 118.92969 | 3909 ft | 270 kts | 55° |
| 2026-05-04 09:18 | 31.89384 | 118.94754 | 3893 ft | 257 kts | 56° |
| 2026-05-04 09:18 | 31.90336 | 118.96481 | 3898 ft | 245 kts | 57° |
| 2026-05-04 09:18 | 31.91219 | 118.98126 | 3906 ft | 235 kts | 58° |
| 2026-05-04 09:19 | 31.92072 | 118.99728 | 3903 ft | 225 kts | 58° |
| 2026-05-04 09:19 | 31.92884 | 119.01256 | 3891 ft | 216 kts | 58° |
| 2026-05-04 09:19 | 31.93659 | 119.02741 | 3910 ft | 207 kts | 63° |
| 2026-05-04 09:19 | 31.93996 | 119.04363 | 3886 ft | 206 kts | 91° |
| 2026-05-04 09:20 | 31.93630 | 119.05939 | 3884 ft | 198 kts | 120° |
| 2026-05-04 09:20 | 31.92708 | 119.07111 | 3880 ft | 194 kts | 150° |
| 2026-05-04 09:20 | 31.91427 | 119.07436 | 3883 ft | 189 kts | 188° |
| 2026-05-04 09:20 | 31.90220 | 119.06860 | 3891 ft | 186 kts | 208° |
| 2026-05-04 09:21 | 31.89073 | 119.06154 | 3892 ft | 187 kts | 208° |
| 2026-05-04 09:21 | 31.87925 | 119.05442 | 3897 ft | 187 kts | 209° |
| 2026-05-04 09:21 | 31.86768 | 119.04724 | 3895 ft | 187 kts | 208° |
| 2026-05-04 09:21 | 31.85609 | 119.04005 | 3889 ft | 188 kts | 208° |
| 2026-05-04 09:22 | 31.84431 | 119.03275 | 3897 ft | 188 kts | 209° |
| 2026-05-04 09:22 | 31.83281 | 119.02561 | 3903 ft | 189 kts | 208° |
| 2026-05-04 09:22 | 31.82103 | 119.01830 | 3686 ft | 193 kts | 208° |
| 2026-05-04 09:22 | 31.80904 | 119.01086 | 3302 ft | 196 kts | 208° |
| 2026-05-04 09:23 | 31.79729 | 119.00278 | 2918 ft | 196 kts | 220° |
| 2026-05-04 09:23 | 31.78891 | 118.99007 | 2470 ft | 201 kts | 238° |
| 2026-05-04 09:23 | 31.78191 | 118.97587 | 2035 ft | 202 kts | 238° |
| 2026-05-04 09:23 | 31.77457 | 118.96200 | 1636 ft | 198 kts | 236° |
| 2026-05-04 09:25 | 31.73123 | 118.88107 | 155 ft | 157 kts | 237° |
| 2026-05-04 09:25 | 31.72567 | 118.87070 | 64 ft | 134 kts | 234° |
| 2026-05-04 09:26 | 31.72146 | 118.86298 | 63 ft | 89 kts | 237° |
| 2026-05-04 09:26 | 31.71883 | 118.85805 | 63 ft | 54 kts | 238° |
| 2026-05-04 09:26 | 31.71739 | 118.85538 | 63 ft | 29 kts | 239° |
| 2026-05-04 09:26 | 31.71653 | 118.85360 | 63 ft | 20 kts | 242° |
| 2026-05-04 09:27 | 31.71607 | 118.85242 | 63 ft | 11 kts | 246° |
| 2026-05-04 09:27 | 31.71590 | 118.85178 | 63 ft | 4 kts | 258° |
| 2026-05-04 09:27 | 31.71588 | 118.85164 | 63 ft | 0 kts | 261° |
| 2026-05-04 09:27 | 31.71683 | 118.85204 | 63 ft | 0 kts | 321° |